Terminal Aerodrome Forecast
Issued by NWS

Home | Current Version | Previous Version | Text Only | Print | Product List | Glossary On
Versions: 1 2 3 4 5 6 7 8 9 10 11 12 13 14 15 16
000
FTUS41 KPHI 092300
TAFMIV
TAF
KMIV 092327Z 1000/1024 19005KT P6SM VCSH SCT045 BKN100
     FM100300 24002KT P6SM BKN045
     FM100900 07002KT P6SM BKN050
      TEMPO 1009/1012 5SM BR
     FM101400 08005KT P6SM BKN045
     FM101800 17006KT P6SM VCSH BKN045
     FM102300 12002KT P6SM BKN045=

USA.gov is the U.S. government's official web portal to all federal, state and local government web resources and services.